Time;durP1;ratioP1;P1;durP2;ratioP2;P2;SDS_P1;SDS_P2;PMS_P1;PMS_P2;Temp;Humidity;BMP_temperature;BMP_pressure;BME280_temperature;BME280_humidity;BME280_pressure;Samples;Min_cycle;Max_cycle;Signal;HPM_P1;HPM_P2
2023/02/18 00:02:10;;;;;;;18.70;12.35;;;11.10;99.90;;;;;;4980613;28;20045;-83
2023/02/18 00:04:36;;;;;;;16.00;9.75;;;11.10;99.90;;;;;;4997952;28;20037;-83
2023/02/18 00:07:01;;;;;;;24.02;17.60;;;11.10;99.90;;;;;;4992611;28;20536;-83
2023/02/18 00:09:27;;;;;;;17.90;7.40;;;11.10;99.90;;;;;;4974245;28;20098;-83
2023/02/18 00:11:53;;;;;;;20.00;13.25;;;11.10;99.90;;;;;;4979941;28;20088;-83
2023/02/18 00:14:18;;;;;;;27.05;14.05;;;11.10;99.90;;;;;;4992464;28;20034;-84
2023/02/18 00:16:44;;;;;;;15.82;8.73;;;11.10;99.90;;;;;;5013064;28;20053;-82
2023/02/18 00:19:12;;;;;;;18.33;11.95;;;11.00;99.90;;;;;;5009788;28;20030;-82
2023/02/18 00:21:38;;;;;;;17.73;9.73;;;11.00;99.90;;;;;;5009514;28;20064;-83
2023/02/18 00:24:04;;;;;;;22.02;12.18;;;11.90;99.90;;;;;;5003791;28;20062;-83
2023/02/18 00:26:30;;;;;;;16.30;9.80;;;11.00;99.90;;;;;;4997937;28;20510;-82
2023/02/18 00:28:55;;;;;;;21.50;14.07;;;11.10;99.90;;;;;;4984036;28;20108;-82
2023/02/18 00:31:23;;;;;;;27.73;17.60;;;11.00;99.90;;;;;;4983234;28;20037;-82
2023/02/18 00:33:49;;;;;;;21.98;14.57;;;11.00;99.90;;;;;;4999936;28;20033;-81
2023/02/18 00:36:16;;;;;;;22.48;12.68;;;11.10;99.90;;;;;;4999375;28;20088;-84
2023/02/18 00:38:49;;;;;;;25.52;15.10;;;11.00;99.90;;;;;;4983706;28;20041;-82
2023/02/18 00:41:15;;;;;;;15.93;8.60;;;11.00;99.90;;;;;;4969636;28;20026;-82
2023/02/18 00:43:40;;;;;;;22.48;11.77;;;11.00;99.90;;;;;;4983713;28;20040;-83
2023/02/18 00:46:06;;;;;;;15.13;8.35;;;11.00;99.90;;;;;;4983782;28;20034;-82
2023/02/18 00:48:32;;;;;;;26.40;16.08;;;11.10;99.90;;;;;;5000406;28;20038;-82
2023/02/18 00:50:59;;;;;;;22.42;16.00;;;11.00;99.90;;;;;;4980235;28;20027;-83
2023/02/18 00:53:28;;;;;;;25.95;16.13;;;11.00;99.90;;;;;;4980297;28;20058;-83
2023/02/18 00:55:53;;;;;;;14.25;8.48;;;11.00;99.90;;;;;;4984548;28;20489;-82
2023/02/18 00:58:19;;;;;;;17.20;10.57;;;11.00;99.90;;;;;;4980188;28;20038;-82
2023/02/18 01:00:44;;;;;;;20.40;13.18;;;11.10;99.90;;;;;;4991123;28;20057;-83
2023/02/18 01:03:10;;;;;;;24.95;16.08;;;11.00;99.90;;;;;;4977747;28;20030;-82
2023/02/18 01:05:36;;;;;;;13.82;7.95;;;10.50;99.90;;;;;;5000868;28;20048;-83
2023/02/18 01:08:02;;;;;;;19.23;12.57;;;10.90;99.90;;;;;;4984133;28;20377;-82
2023/02/18 01:10:27;;;;;;;19.08;12.85;;;11.00;99.90;;;;;;4988877;28;20041;-82
2023/02/18 01:12:53;;;;;;;15.13;8.98;;;11.00;99.90;;;;;;4988986;28;20124;-82
2023/02/18 01:15:24;;;;;;;15.73;8.63;;;10.90;99.90;;;;;;4995553;28;20029;-83
2023/02/18 01:17:50;;;;;;;20.15;12.38;;;10.90;99.90;;;;;;4984713;28;20052;-81
2023/02/18 01:20:16;;;;;;;17.30;9.93;;;10.90;99.90;;;;;;4995352;28;20498;-83
2023/02/18 01:22:42;;;;;;;22.08;12.43;;;10.90;99.90;;;;;;4996124;28;20792;-82
2023/02/18 01:25:09;;;;;;;23.77;14.43;;;10.80;99.90;;;;;;4985722;28;20041;-82
2023/02/18 01:27:37;;;;;;;21.35;13.40;;;10.80;99.90;;;;;;4991956;28;20093;-82
2023/02/18 01:30:04;;;;;;;17.30;9.93;;;10.80;99.90;;;;;;4955515;28;20133;-82
2023/02/18 01:32:30;;;;;;;21.52;12.30;;;10.80;99.90;;;;;;4996737;28;20085;-82
2023/02/18 01:34:55;;;;;;;18.48;10.15;;;10.80;99.90;;;;;;4992358;28;20156;-83
2023/02/18 01:37:21;;;;;;;12.10;7.95;;;10.80;99.90;;;;;;4988428;28;20062;-82
2023/02/18 01:39:46;;;;;;;22.55;11.40;;;11.20;99.90;;;;;;5002509;28;20050;-83
2023/02/18 01:42:23;;;;;;;18.90;10.30;;;11.00;99.90;;;;;;4997484;28;20061;-82
2023/02/18 01:44:49;;;;;;;19.17;10.18;;;11.00;99.90;;;;;;4977721;28;20678;-81
2023/02/18 01:47:15;;;;;;;20.55;14.70;;;10.80;99.90;;;;;;4988949;28;20033;-82
2023/02/18 01:49:41;;;;;;;21.25;12.70;;;11.00;99.90;;;;;;4978208;28;20050;-82
2023/02/18 01:52:10;;;;;;;15.65;7.00;;;11.00;99.90;;;;;;5001546;28;20030;-82
2023/02/18 01:54:40;;;;;;;19.77;13.32;;;10.80;99.90;;;;;;5000219;28;20066;-82
2023/02/18 01:57:10;;;;;;;18.23;11.45;;;10.80;99.90;;;;;;4997007;28;20040;-81
2023/02/18 01:59:42;;;;;;;14.25;8.45;;;10.80;99.90;;;;;;5000856;28;20042;-82
2023/02/18 02:02:11;;;;;;;15.32;9.05;;;10.80;99.90;;;;;;4996151;28;20034;-81
2023/02/18 02:04:37;;;;;;;17.80;7.93;;;10.80;99.90;;;;;;4981359;28;20049;-82
2023/02/18 02:07:03;;;;;;;19.08;12.43;;;10.80;99.90;;;;;;4964394;28;20033;-82
2023/02/18 02:09:28;;;;;;;12.32;8.45;;;10.80;99.90;;;;;;4990053;28;20038;-84
2023/02/18 02:12:07;;;;;;;14.90;8.85;;;10.80;99.90;;;;;;4990653;28;20507;-83
2023/02/18 02:14:59;;;;;;;13.23;8.20;;;10.80;99.90;;;;;;5005747;28;20050;-83
2023/02/18 02:17:34;;;;;;;11.00;7.40;;;10.80;99.90;;;;;;4995963;28;20038;-82
2023/02/18 02:20:12;;;;;;;10.43;7.07;;;10.80;99.90;;;;;;5001097;28;20113;-84
2023/02/18 02:23:15;;;;;;;13.63;8.75;;;10.80;99.90;;;;;;5002033;28;20037;-83
2023/02/18 02:26:05;;;;;;;12.85;8.73;;;10.80;99.90;;;;;;5014051;28;20025;-82
2023/02/18 02:28:42;;;;;;;13.43;7.53;;;10.80;99.90;;;;;;4999279;28;20072;-83
2023/02/18 02:31:40;;;;;;;10.60;6.85;;;10.80;99.90;;;;;;5002417;28;20374;-83
2023/02/18 02:34:36;;;;;;;11.40;7.82;;;10.90;99.90;;;;;;4995820;28;20037;-82
2023/02/18 02:37:15;;;;;;;12.18;7.78;;;10.80;99.90;;;;;;4998872;28;20033;-82
2023/02/18 02:39:52;;;;;;;10.75;6.90;;;10.80;99.90;;;;;;4978874;28;20068;-83
2023/02/18 02:43:06;;;;;;;9.25;5.55;;;10.80;99.90;;;;;;5014229;28;20058;-82
2023/02/18 02:45:46;;;;;;;10.57;5.53;;;10.80;99.90;;;;;;4949818;28;20616;-83
2023/02/18 02:48:37;;;;;;;9.55;6.55;;;10.90;99.90;;;;;;5008198;28;20030;-83
2023/02/18 02:51:36;;;;;;;13.40;7.93;;;10.90;99.90;;;;;;4991046;28;20030;-83
2023/02/18 02:54:22;;;;;;;11.98;8.98;;;10.90;99.90;;;;;;4972625;28;20077;-83
2023/02/18 02:56:48;;;;;;;5.38;3.53;;;10.90;99.90;;;;;;4987663;28;20030;-83
2023/02/18 02:59:23;;;;;;;11.00;6.95;;;10.90;99.90;;;;;;4990396;28;20488;-82
2023/02/18 03:01:54;;;;;;;9.57;6.22;;;10.90;99.90;;;;;;4994539;28;20028;-82
2023/02/18 03:04:30;;;;;;;7.65;5.70;;;10.90;99.90;;;;;;5008346;28;20065;-83
2023/02/18 03:07:47;;;;;;;10.90;4.60;;;10.90;99.90;;;;;;5001683;28;20026;-81
2023/02/18 03:10:36;;;;;;;10.70;5.95;;;10.90;99.90;;;;;;4985785;28;20046;-82
2023/02/18 03:13:17;;;;;;;7.75;3.30;;;10.80;99.90;;;;;;5007170;28;20041;-82
2023/02/18 03:15:49;;;;;;;8.43;5.07;;;10.80;99.90;;;;;;5012442;28;20030;-85
2023/02/18 03:18:36;;;;;;;7.00;4.35;;;10.80;99.90;;;;;;4994041;28;20437;-84
2023/02/18 03:21:03;;;;;;;10.25;4.82;;;10.80;99.90;;;;;;5003398;28;20481;-84
2023/02/18 03:23:33;;;;;;;11.85;8.57;;;10.80;99.90;;;;;;4995781;28;20514;-85
2023/02/18 03:26:00;;;;;;;12.95;6.68;;;10.80;99.90;;;;;;4992137;28;20026;-81
2023/02/18 03:28:27;;;;;;;10.93;6.57;;;10.90;99.90;;;;;;5007487;28;20504;-84
2023/02/18 03:30:56;;;;;;;11.18;5.90;;;10.80;99.90;;;;;;4992435;28;20033;-82
2023/02/18 03:33:27;;;;;;;10.80;6.43;;;10.80;99.90;;;;;;4994392;28;20046;-83
2023/02/18 03:35:53;;;;;;;10.82;6.38;;;10.70;99.90;;;;;;4975651;28;20048;-82
2023/02/18 03:38:47;;;;;;;10.10;5.35;;;10.70;99.90;;;;;;5008370;28;20589;-83
2023/02/18 03:41:13;;;;;;;10.68;6.38;;;10.70;99.90;;;;;;4994523;28;20925;-82
2023/02/18 03:43:54;;;;;;;8.30;4.90;;;10.70;99.90;;;;;;4988297;28;20132;-83
2023/02/18 03:46:19;;;;;;;13.00;8.95;;;10.70;99.90;;;;;;4999125;28;20580;-83
2023/02/18 03:48:45;;;;;;;9.48;5.50;;;10.70;99.90;;;;;;4980219;28;20033;-82
2023/02/18 03:51:10;;;;;;;15.70;8.23;;;10.70;99.90;;;;;;5010806;28;20717;-82
2023/02/18 03:53:36;;;;;;;12.02;6.45;;;10.60;99.90;;;;;;4995065;28;20088;-83
2023/02/18 03:56:02;;;;;;;9.77;5.28;;;10.60;99.90;;;;;;5006836;28;20029;-83
2023/02/18 03:58:29;;;;;;;10.27;5.20;;;10.60;99.90;;;;;;5011386;28;20087;-84
2023/02/18 04:00:54;;;;;;;8.82;3.65;;;10.60;99.90;;;;;;4990444;28;20486;-84
2023/02/18 04:03:20;;;;;;;10.52;6.07;;;10.50;99.90;;;;;;5003135;28;20053;-84
2023/02/18 04:05:46;;;;;;;12.77;6.60;;;10.60;99.90;;;;;;5009689;28;20034;-84
2023/02/18 04:08:12;;;;;;;15.32;7.97;;;10.60;99.90;;;;;;4997094;28;20122;-84
2023/02/18 04:10:38;;;;;;;11.32;7.40;;;10.60;99.90;;;;;;4993908;28;20066;-85
2023/02/18 04:13:14;;;;;;;14.23;7.47;;;10.60;99.90;;;;;;4977997;28;20033;-83
2023/02/18 04:15:39;;;;;;;;;;;10.60;99.90;;;;;;4994985;28;20085;-84
2023/02/18 04:18:05;;;;;;;17.00;9.10;;;10.60;99.90;;;;;;5011240;28;19913;-84
2023/02/18 04:20:30;;;;;;;17.13;9.55;;;10.60;99.90;;;;;;5011312;28;20037;-84
2023/02/18 04:22:56;;;;;;;15.95;8.65;;;10.90;99.90;;;;;;5010157;28;20331;-83
2023/02/18 04:25:21;;;;;;;11.30;7.32;;;10.60;99.90;;;;;;4995629;28;20124;-84
2023/02/18 04:27:47;;;;;;;14.00;6.45;;;10.50;99.90;;;;;;5011164;28;20105;-84
2023/02/18 04:30:13;;;;;;;15.63;4.75;;;10.50;99.90;;;;;;4993092;28;20417;-84
2023/02/18 04:32:38;;;;;;;13.90;7.47;;;10.60;99.90;;;;;;4992913;28;20104;-84
2023/02/18 04:35:04;;;;;;;10.80;5.28;;;10.50;99.90;;;;;;4993205;28;20366;-83
2023/02/18 04:37:30;;;;;;;13.70;6.63;;;10.60;99.90;;;;;;4995477;28;20034;-83
2023/02/18 04:39:55;;;;;;;14.15;7.10;;;10.60;99.90;;;;;;5008791;28;20081;-84
2023/02/18 04:42:21;;;;;;;8.68;4.80;;;10.60;99.90;;;;;;5010121;28;20030;-85
2023/02/18 04:44:46;;;;;;;10.02;6.00;;;10.60;99.90;;;;;;4998199;28;20026;-84
2023/02/18 04:47:12;;;;;;;8.13;3.53;;;10.20;99.90;;;;;;5008720;28;20042;-84
2023/02/18 04:49:38;;;;;;;7.15;4.30;;;10.20;99.90;;;;;;4989647;28;20060;-84
2023/02/18 04:52:03;;;;;;;8.52;4.53;;;10.60;99.90;;;;;;5004743;28;20431;-84
2023/02/18 04:54:29;;;;;;;6.00;3.47;;;10.50;99.90;;;;;;5003465;28;20026;-84
2023/02/18 04:56:55;;;;;;;4.03;2.40;;;10.50;99.90;;;;;;4989926;28;20390;-84
2023/02/18 04:59:21;;;;;;;3.97;2.97;;;10.50;99.90;;;;;;5009049;28;20083;-84
2023/02/18 05:01:46;;;;;;;4.75;2.97;;;10.90;99.90;;;;;;4993277;28;20095;-84
2023/02/18 05:04:12;;;;;;;3.60;1.45;;;10.50;99.90;;;;;;5009131;28;20068;-84
2023/02/18 05:06:41;;;;;;;2.55;1.77;;;11.30;99.90;;;;;;4992816;28;20502;-84
2023/02/18 05:09:07;;;;;;;3.88;1.80;;;10.50;99.90;;;;;;5009236;28;20052;-83
2023/02/18 05:11:33;;;;;;;2.65;1.70;;;10.50;99.90;;;;;;5009298;28;20034;-83
2023/02/18 05:14:02;;;;;;;4.07;1.63;;;10.50;99.90;;;;;;4973568;28;20109;-83
2023/02/18 05:16:27;;;;;;;2.92;1.85;;;10.60;99.90;;;;;;4999523;28;20533;-82
2023/02/18 05:18:53;;;;;;;4.15;1.50;;;10.40;99.90;;;;;;5011024;28;20033;-84
2023/02/18 05:21:25;;;;;;;1.40;1.23;;;10.40;99.90;;;;;;4992374;28;20033;-83
2023/02/18 05:23:51;;;;;;;1.88;1.17;;;10.30;99.90;;;;;;4981006;28;20112;-83
2023/02/18 05:26:16;;;;;;;1.85;1.50;;;10.40;99.90;;;;;;5006560;28;20041;-83
2023/02/18 05:28:48;;;;;;;3.33;0.95;;;10.40;99.90;;;;;;4991953;28;20030;-84
2023/02/18 05:31:14;;;;;;;1.40;1.00;;;11.30;99.90;;;;;;5009416;28;20569;-84
2023/02/18 05:33:39;;;;;;;1.17;0.60;;;10.50;99.90;;;;;;4994529;28;20121;-83
2023/02/18 05:36:05;;;;;;;0.63;0.45;;;11.10;99.90;;;;;;5000733;28;20037;-83
2023/02/18 05:38:31;;;;;;;1.40;1.30;;;10.40;99.90;;;;;;4993998;28;20605;-85
2023/02/18 05:40:57;;;;;;;0.80;0.52;;;10.40;99.90;;;;;;4991725;28;20034;-84
2023/02/18 05:43:22;;;;;;;0.75;0.47;;;10.50;99.90;;;;;;4992227;28;20108;-84
2023/02/18 05:45:48;;;;;;;2.78;2.00;;;10.40;99.90;;;;;;4996873;28;20042;-83
2023/02/18 05:48:13;;;;;;;1.13;1.02;;;10.40;99.90;;;;;;4968920;28;20132;-83
2023/02/18 05:50:39;;;;;;;0.80;0.70;;;10.40;99.90;;;;;;4965705;28;20438;-84
2023/02/18 05:53:05;;;;;;;1.30;1.02;;;10.70;99.90;;;;;;4943690;28;20037;-84
2023/02/18 05:55:32;;;;;;;0.82;0.82;;;10.30;99.90;;;;;;4958153;28;20034;-84
2023/02/18 05:57:57;;;;;;;1.10;0.77;;;10.30;99.90;;;;;;4957310;28;20175;-84
2023/02/18 06:00:24;;;;;;;1.35;0.80;;;10.30;99.90;;;;;;4967097;28;20447;-84
2023/02/18 06:02:49;;;;;;;1.65;1.05;;;10.30;99.90;;;;;;4984879;28;20087;-85
2023/02/18 06:05:15;;;;;;;1.92;1.48;;;9.90;99.90;;;;;;4958498;28;20029;-85
2023/02/18 06:07:42;;;;;;;1.98;1.73;;;10.30;99.90;;;;;;4965265;28;20054;-84
2023/02/18 06:10:08;;;;;;;1.92;1.73;;;10.30;99.90;;;;;;4978581;28;20030;-84
2023/02/18 06:12:33;;;;;;;1.52;1.00;;;10.20;99.90;;;;;;4987234;28;20468;-84
2023/02/18 06:14:59;;;;;;;0.60;0.60;;;10.30;99.90;;;;;;4967126;28;20054;-84
2023/02/18 06:17:24;;;;;;;2.47;1.73;;;9.40;99.90;;;;;;4974794;28;20079;-84
2023/02/18 06:19:50;;;;;;;2.08;1.58;;;10.90;99.90;;;;;;4999441;28;20069;-84
2023/02/18 06:22:15;;;;;;;2.13;1.65;;;10.30;99.90;;;;;;4997971;28;20030;-84
2023/02/18 06:24:41;;;;;;;2.80;2.28;;;10.50;99.90;;;;;;4998914;28;20038;-83
2023/02/18 06:27:07;;;;;;;1.25;1.08;;;10.30;99.90;;;;;;4960864;28;20406;-83
2023/02/18 06:29:41;;;;;;;3.60;1.95;;;10.20;99.90;;;;;;4980828;28;20038;-84
2023/02/18 06:32:06;;;;;;;1.75;1.15;;;10.00;99.90;;;;;;4968559;28;20505;-83
2023/02/18 06:34:32;;;;;;;1.73;1.50;;;10.20;99.90;;;;;;4974008;28;20029;-84
2023/02/18 06:36:58;;;;;;;1.45;1.20;;;10.30;99.90;;;;;;4991460;28;20030;-83
2023/02/18 06:39:29;;;;;;;1.63;1.50;;;10.30;99.90;;;;;;4996160;28;20046;-84
2023/02/18 06:41:54;;;;;;;2.22;1.88;;;10.20;99.90;;;;;;4996117;28;20116;-84
2023/02/18 06:44:20;;;;;;;1.73;1.63;;;9.90;99.90;;;;;;5009915;28;20556;-83
2023/02/18 06:46:47;;;;;;;1.80;1.60;;;10.90;99.90;;;;;;5011902;28;21018;-84
2023/02/18 06:49:12;;;;;;;1.92;1.33;;;9.40;99.90;;;;;;5013280;28;20034;-83
2023/02/18 06:51:39;;;;;;;2.03;1.73;;;10.20;99.90;;;;;;5008364;28;20092;-83
2023/02/18 06:54:05;;;;;;;1.17;0.85;;;10.30;99.90;;;;;;4980918;28;20120;-83
2023/02/18 06:56:31;;;;;;;2.72;1.42;;;10.20;99.90;;;;;;5012545;28;20084;-83
2023/02/18 06:58:56;;;;;;;1.75;1.05;;;10.10;99.90;;;;;;4999332;28;20037;-82
2023/02/18 07:01:22;;;;;;;1.35;0.90;;;10.10;99.90;;;;;;5016534;28;20038;-83
2023/02/18 07:03:47;;;;;;;2.80;1.67;;;10.80;99.90;;;;;;5014219;28;20041;-82
2023/02/18 07:06:13;;;;;;;2.83;1.88;;;10.10;99.90;;;;;;5009637;28;20041;-82
2023/02/18 07:08:38;;;;;;;2.03;1.45;;;10.10;99.90;;;;;;4987367;28;20117;-82
2023/02/18 07:11:04;;;;;;;3.35;2.33;;;10.10;99.90;;;;;;4996460;28;20079;-84
2023/02/18 07:13:30;;;;;;;2.38;1.60;;;10.10;99.90;;;;;;4998152;28;20133;-82
2023/02/18 07:15:55;;;;;;;2.22;1.38;;;10.60;99.90;;;;;;5008878;28;20042;-82
2023/02/18 07:18:21;;;;;;;2.42;1.58;;;10.10;99.90;;;;;;4990593;28;20061;-83
2023/02/18 07:20:46;;;;;;;1.55;1.20;;;10.40;99.90;;;;;;4999516;28;20022;-83
2023/02/18 07:23:12;;;;;;;1.85;1.52;;;10.10;99.90;;;;;;5010238;28;20040;-81
2023/02/18 07:25:38;;;;;;;2.15;1.48;;;10.10;99.90;;;;;;5012032;28;20491;-82
2023/02/18 07:28:03;;;;;;;3.35;2.00;;;10.50;99.90;;;;;;5000531;28;20030;-83
2023/02/18 07:30:29;;;;;;;2.35;1.60;;;10.10;99.90;;;;;;5016642;28;20040;-83
2023/02/18 07:32:54;;;;;;;2.55;2.28;;;10.60;99.90;;;;;;5008642;28;20057;-83
2023/02/18 07:35:20;;;;;;;1.70;1.55;;;10.00;99.90;;;;;;4986600;28;20073;-83
2023/02/18 07:37:46;;;;;;;2.17;1.45;;;10.00;99.90;;;;;;4990957;28;20133;-83
2023/02/18 07:40:14;;;;;;;3.03;1.38;;;10.10;99.90;;;;;;5013444;28;20025;-83
2023/02/18 07:42:40;;;;;;;1.65;1.52;;;10.10;99.90;;;;;;4998628;28;20053;-82
2023/02/18 07:45:06;;;;;;;1.30;1.10;;;9.20;99.90;;;;;;5001358;28;20061;-84
2023/02/18 07:47:35;;;;;;;1.83;1.48;;;10.10;99.90;;;;;;5013480;28;20121;-83
2023/02/18 07:50:00;;;;;;;1.70;1.20;;;10.70;99.90;;;;;;4995322;28;20105;-82
2023/02/18 07:52:26;;;;;;;1.60;0.90;;;10.00;99.90;;;;;;4991157;28;20125;-83
2023/02/18 07:54:52;;;;;;;2.15;1.10;;;10.20;99.90;;;;;;4999665;28;20033;-83
2023/02/18 07:57:17;;;;;;;7.32;1.15;;;10.00;99.90;;;;;;4992969;28;20580;-83
2023/02/18 07:59:43;;;;;;;1.27;0.98;;;10.10;99.90;;;;;;4995187;28;20057;-84
2023/02/18 08:02:19;;;;;;;1.40;0.95;;;10.40;99.90;;;;;;5010208;28;20116;-83
2023/02/18 08:04:44;;;;;;;0.98;0.80;;;10.00;99.90;;;;;;4997335;28;20655;-85
2023/02/18 08:07:16;;;;;;;1.10;0.63;;;10.00;99.90;;;;;;5007821;28;20112;-84
2023/02/18 08:09:42;;;;;;;2.15;0.85;;;10.00;99.90;;;;;;5012381;28;20033;-83
2023/02/18 08:12:08;;;;;;;0.95;0.60;;;10.70;99.90;;;;;;5007912;28;20159;-82
2023/02/18 08:14:37;;;;;;;0.80;0.55;;;10.80;99.90;;;;;;5006586;28;20038;-84
2023/02/18 08:17:03;;;;;;;0.70;0.47;;;10.00;99.90;;;;;;4999313;28;20033;-84
2023/02/18 08:19:28;;;;;;;3.08;0.55;;;10.20;99.90;;;;;;5013404;28;20042;-85
2023/02/18 08:21:54;;;;;;;1.80;0.60;;;10.10;99.90;;;;;;5011349;28;20099;-85
2023/02/18 08:24:29;;;;;;;0.82;0.50;;;10.10;99.90;;;;;;4990961;28;20049;-84
2023/02/18 08:26:56;;;;;;;2.58;0.70;;;10.20;99.90;;;;;;4998647;28;20029;-84
2023/02/18 08:29:22;;;;;;;1.27;0.80;;;10.10;99.90;;;;;;5010602;28;20050;-85
2023/02/18 08:31:47;;;;;;;1.23;0.60;;;10.10;99.90;;;;;;5006165;28;20378;-85
2023/02/18 08:34:13;;;;;;;1.25;0.80;;;10.10;99.90;;;;;;4987140;28;20691;-84
2023/02/18 08:36:40;;;;;;;0.90;0.50;;;10.00;99.90;;;;;;5010733;28;20039;-85
2023/02/18 08:39:05;;;;;;;0.25;0.25;;;10.20;99.90;;;;;;4986656;28;20069;-85
2023/02/18 08:41:31;;;;;;;2.78;0.80;;;11.10;99.90;;;;;;5007732;28;20275;-83
2023/02/18 08:44:04;;;;;;;0.40;0.40;;;10.10;99.90;;;;;;4998531;28;20030;-84
2023/02/18 08:46:29;;;;;;;1.15;0.65;;;10.20;99.90;;;;;;4998176;28;20057;-83
2023/02/18 08:48:56;;;;;;;2.58;0.80;;;10.20;99.90;;;;;;5012496;28;20108;-84
2023/02/18 08:51:22;;;;;;;1.90;1.13;;;10.10;99.90;;;;;;5005531;28;20034;-84
2023/02/18 08:53:48;;;;;;;2.22;1.05;;;10.10;99.90;;;;;;4992630;28;20037;-83
2023/02/18 08:56:14;;;;;;;1.70;1.17;;;9.20;99.90;;;;;;4993276;28;20100;-83
2023/02/18 08:58:40;;;;;;;4.85;1.23;;;10.00;99.90;;;;;;5000719;28;20037;-85
2023/02/18 09:01:08;;;;;;;12.82;1.95;;;10.30;99.90;;;;;;5000096;28;20034;-84
2023/02/18 09:03:33;;;;;;;5.40;1.58;;;9.90;99.90;;;;;;5002276;28;20114;-85
2023/02/18 09:05:59;;;;;;;4.30;1.33;;;10.20;99.90;;;;;;4995190;28;20464;-80
2023/02/18 09:08:25;;;;;;;2.90;1.35;;;10.00;99.90;;;;;;5008550;28;20423;-81
2023/02/18 09:10:55;;;;;;;2.72;1.27;;;9.90;99.90;;;;;;4988923;28;20030;-79
2023/02/18 09:13:21;;;;;;;4.70;1.10;;;9.80;99.90;;;;;;4970821;28;20049;-81
2023/02/18 09:15:55;;;;;;;4.53;1.48;;;9.50;99.90;;;;;;5009952;28;20041;-82
2023/02/18 09:18:21;;;;;;;5.70;1.17;;;9.90;99.90;;;;;;4986714;28;20042;-81
2023/02/18 09:20:46;;;;;;;3.97;1.52;;;9.80;99.90;;;;;;4999640;28;20505;-80
2023/02/18 09:23:12;;;;;;;7.43;1.35;;;9.80;99.90;;;;;;5010071;28;20069;-80
2023/02/18 09:25:39;;;;;;;2.22;0.70;;;9.80;99.90;;;;;;4982739;28;20021;-81
2023/02/18 09:28:04;;;;;;;3.70;1.45;;;9.80;99.90;;;;;;5008787;28;20120;-81
2023/02/18 09:30:39;;;;;;;6.20;2.20;;;9.70;99.90;;;;;;5001797;28;20237;-81
2023/02/18 09:33:05;;;;;;;5.57;1.27;;;9.70;99.90;;;;;;5004600;28;20117;-81
2023/02/18 09:35:31;;;;;;;7.63;2.55;;;10.50;99.90;;;;;;5003213;28;20737;-80
2023/02/18 09:37:56;;;;;;;3.33;1.23;;;10.30;99.90;;;;;;5002284;28;20034;-80
2023/02/18 09:40:30;;;;;;;5.95;1.40;;;9.70;99.90;;;;;;4992269;28;20034;-81
2023/02/18 09:42:56;;;;;;;2.05;1.17;;;9.70;99.90;;;;;;4992762;28;20060;-80
2023/02/18 09:45:21;;;;;;;5.25;2.08;;;9.70;99.90;;;;;;4988576;28;20029;-82
2023/02/18 09:47:48;;;;;;;5.47;1.40;;;9.70;99.90;;;;;;4993578;28;20093;-81
2023/02/18 09:50:31;;;;;;;3.25;1.05;;;9.70;99.90;;;;;;5003593;28;20041;-81
2023/02/18 09:53:00;;;;;;;3.22;1.20;;;9.60;99.90;;;;;;4992692;28;20091;-82
2023/02/18 09:55:37;;;;;;;5.32;1.85;;;9.70;99.90;;;;;;5006362;28;20038;-81
2023/02/18 09:58:18;;;;;;;3.70;1.35;;;9.60;99.90;;;;;;5008660;28;20030;-81
2023/02/18 10:00:47;;;;;;;6.30;1.33;;;9.60;99.90;;;;;;4988274;28;20121;-81
2023/02/18 10:03:25;;;;;;;8.43;2.15;;;9.60;99.90;;;;;;5010859;28;20033;-81
2023/02/18 10:05:59;;;;;;;6.07;1.38;;;9.60;99.90;;;;;;5007426;28;20068;-82
2023/02/18 10:08:29;;;;;;;2.70;1.42;;;9.70;99.90;;;;;;5025634;28;20704;-82
2023/02/18 10:10:54;;;;;;;4.22;1.58;;;9.60;99.90;;;;;;4992242;28;20023;-80
2023/02/18 10:13:30;;;;;;;3.40;1.60;;;9.60;99.90;;;;;;4990960;28;20045;-81
2023/02/18 10:15:56;;;;;;;7.22;1.73;;;9.70;99.90;;;;;;4996437;28;20099;-82
2023/02/18 10:18:29;;;;;;;4.50;0.95;;;9.60;99.90;;;;;;5008793;28;20113;-81
2023/02/18 10:21:09;;;;;;;11.00;2.03;;;9.70;99.90;;;;;;5007257;28;20030;-80
2023/02/18 10:23:37;;;;;;;11.20;2.33;;;9.70;99.90;;;;;;5005323;28;20136;-80
2023/02/18 10:26:05;;;;;;;23.70;6.13;;;9.70;99.90;;;;;;5011379;28;20046;-80
2023/02/18 10:28:55;;;;;;;5.65;2.08;;;9.70;99.90;;;;;;5007721;28;20036;-81
2023/02/18 10:31:35;;;;;;;4.70;1.15;;;9.70;99.90;;;;;;4963545;28;20034;-80
2023/02/18 10:34:23;;;;;;;3.45;1.45;;;9.70;99.90;;;;;;4986892;28;20044;-81
2023/02/18 10:36:57;;;;;;;5.72;1.67;;;9.70;99.90;;;;;;4994489;28;20029;-81
2023/02/18 10:39:49;;;;;;;6.22;1.50;;;9.70;99.90;;;;;;4975996;28;20378;-79
2023/02/18 10:42:18;;;;;;;11.82;1.88;;;9.70;99.90;;;;;;5009793;28;20495;-81
2023/02/18 10:44:52;;;;;;;8.18;2.17;;;9.60;99.90;;;;;;5013390;28;20760;-81
2023/02/18 10:47:37;;;;;;;11.68;2.78;;;9.70;99.90;;;;;;5011869;28;20501;-81
2023/02/18 10:50:08;;;;;;;9.55;1.55;;;9.70;99.90;;;;;;5009276;28;20022;-80
2023/02/18 10:52:40;;;;;;;8.68;2.88;;;9.70;99.90;;;;;;4978458;28;20449;-81
2023/02/18 10:55:08;;;;;;;8.02;2.00;;;9.70;99.90;;;;;;4986774;28;20039;-80
2023/02/18 10:57:34;;;;;;;8.20;2.90;;;9.70;99.90;;;;;;5004854;28;20502;-80
2023/02/18 11:00:32;;;;;;;6.38;2.00;;;10.10;99.90;;;;;;4996710;28;20047;-80
2023/02/18 11:03:13;;;;;;;7.82;2.38;;;9.70;99.90;;;;;;4987517;28;20593;-80
2023/02/18 11:05:39;;;;;;;3.85;2.00;;;9.70;99.90;;;;;;5007728;28;20838;-80
2023/02/18 11:08:15;;;;;;;5.20;1.48;;;9.70;99.90;;;;;;5013609;28;20025;-83
2023/02/18 11:10:42;;;;;;;6.57;1.58;;;9.60;99.90;;;;;;5008630;28;20572;-83
2023/02/18 11:13:09;;;;;;;3.63;1.48;;;9.60;99.90;;;;;;4972674;28;20022;-81
2023/02/18 11:15:36;;;;;;;6.95;1.63;;;9.60;99.90;;;;;;4953862;28;20030;-82
2023/02/18 11:18:36;;;;;;;6.93;2.47;;;9.60;99.90;;;;;;4954459;28;20022;-81
2023/02/18 11:21:29;;;;;;;11.98;2.83;;;9.60;99.90;;;;;;4995257;28;20558;-81
2023/02/18 11:24:15;;;;;;;7.05;2.17;;;9.60;99.90;;;;;;4987686;28;20026;-81
2023/02/18 11:26:45;;;;;;;6.00;2.15;;;9.60;99.90;;;;;;4980078;28;20038;-81
2023/02/18 11:29:23;;;;;;;5.47;1.88;;;9.60;99.90;;;;;;4975576;28;20030;-81
2023/02/18 11:31:50;;;;;;;7.93;2.63;;;9.60;99.90;;;;;;4965932;28;20046;-80
2023/02/18 11:34:17;;;;;;;14.93;2.20;;;9.60;99.90;;;;;;4982625;28;20124;-81
2023/02/18 11:36:46;;;;;;;7.53;1.58;;;9.60;99.90;;;;;;4998474;28;20037;-82
2023/02/18 11:39:27;;;;;;;2.78;1.88;;;9.70;99.90;;;;;;4981640;28;20046;-81
2023/02/18 11:42:04;;;;;;;6.00;2.00;;;9.70;99.90;;;;;;4993066;28;20113;-82
2023/02/18 11:44:38;;;;;;;3.70;1.35;;;9.70;99.90;;;;;;4960449;28;20631;-82
2023/02/18 11:47:07;;;;;;;3.90;1.20;;;9.70;99.90;;;;;;4983156;28;20045;-82
2023/02/18 11:49:33;;;;;;;5.45;1.70;;;9.70;99.90;;;;;;4974291;28;20038;-82
2023/02/18 11:52:17;;;;;;;2.42;1.52;;;9.70;99.90;;;;;;4976456;28;20516;-83
2023/02/18 11:54:43;;;;;;;5.07;2.00;;;9.70;99.90;;;;;;4993320;28;20138;-83
2023/02/18 11:57:13;;;;;;;3.95;1.65;;;9.70;99.90;;;;;;4982518;28;20045;-82
2023/02/18 11:59:39;;;;;;;3.75;1.50;;;9.70;99.90;;;;;;4976870;28;20034;-82
2023/02/18 12:02:11;;;;;;;5.28;1.60;;;9.70;99.90;;;;;;4990770;28;20053;-82
2023/02/18 12:04:44;;;;;;;3.63;1.70;;;9.70;99.90;;;;;;5005145;28;20035;-82
2023/02/18 12:07:54;;;;;;;7.43;2.42;;;9.70;99.90;;;;;;4979882;28;20429;-81
2023/02/18 12:10:32;;;;;;;2.88;1.80;;;9.70;99.90;;;;;;4964663;28;20473;-82
2023/02/18 12:13:23;;;;;;;3.20;1.15;;;9.80;99.90;;;;;;4963467;28;20041;-81
2023/02/18 12:16:27;;;;;;;3.85;2.50;;;9.80;99.90;;;;;;4991453;28;20090;-81
2023/02/18 12:19:00;;;;;;;1.95;1.08;;;9.80;99.90;;;;;;4963015;28;20030;-84
2023/02/18 12:21:56;;;;;;;2.53;1.70;;;9.80;99.90;;;;;;4976908;28;20564;-81
2023/02/18 12:24:45;;;;;;;3.85;2.00;;;9.80;99.90;;;;;;4999149;28;20039;-80
2023/02/18 12:27:23;;;;;;;5.32;1.65;;;9.90;99.90;;;;;;4995750;28;20026;-82
2023/02/18 12:30:02;;;;;;;3.40;1.80;;;9.90;99.90;;;;;;4974528;28;20046;-81
2023/02/18 12:32:55;;;;;;;5.35;2.35;;;9.90;99.90;;;;;;4985155;28;20045;-82
2023/02/18 12:36:04;;;;;;;3.25;1.98;;;9.90;99.90;;;;;;5013903;28;20045;-82
2023/02/18 12:38:37;;;;;;;2.45;1.52;;;9.90;99.90;;;;;;4975188;28;20050;-82
2023/02/18 12:41:22;;;;;;;5.05;2.53;;;9.90;99.90;;;;;;4998497;28;20397;-84
2023/02/18 12:44:11;;;;;;;3.88;3.05;;;9.90;99.90;;;;;;4964572;28;20100;-82
2023/02/18 12:46:43;;;;;;;6.60;3.47;;;9.90;99.90;;;;;;4987013;28;20043;-83
2023/02/18 12:49:39;;;;;;;5.71;3.51;;;9.90;99.90;;;;;;4914584;28;10000555;-82
2023/02/18 12:52:39;;;;;;;5.30;3.88;;;9.90;99.90;;;;;;4643039;28;10001541;-84
2023/02/18 12:55:05;;;;;;;7.55;3.72;;;10.00;99.90;;;;;;4989901;28;20057;-82
2023/02/18 12:57:41;;;;;;;6.70;4.15;;;10.00;99.90;;;;;;5001870;28;20077;-82
2023/02/18 13:00:14;;;;;;;8.10;3.97;;;10.00;99.90;;;;;;4986534;28;20053;-82
2023/02/18 13:02:42;;;;;;;7.28;4.65;;;10.00;99.90;;;;;;5010366;28;20038;-83
2023/02/18 13:05:53;;;;;;;6.53;3.58;;;10.10;99.90;;;;;;4998716;28;20554;-83